Nearby METAR Reports

 

EGAE - Eglinton/Londond, United Kingdom
Distance from station: N 47km
Updated: 25/06/2019 12:50
NOT Current
Partly cloudy
Partly cloudy
 Wind from NNE
Wind: NNE 11 km/h
Temperature: 17°C
Dew Point: 13°C
Humidity: 77%
Barometer: 1027 hPa
Clouds: Partly cloudy
Visibility: 10 km
Cloud details: Few Clouds 762 m
Partly cloudy 1067 m
2019/06/25 19:50 EGAE 251950Z 03006KT 9999 FEW025 SCT035 17/13 Q1027
EGAA - Belfast/Aldergro, United Kingdom
Distance from station: E 68km
Updated: 25/06/2019 17:20
Clear
Clear
 Wind from calm
Wind: Calm
Temperature: 11°C
Dew Point: 10°C
Humidity: 94%
Barometer: 1028 hPa
Summary: Clear
Visibility: greater than 10 km
2019/06/26 00:20 EGAA 260020Z 00000KT CAVOK 11/10 Q1028